createdAt,value
2019-02-18T00:00:50.992Z,17.20
2019-02-18T00:03:55.743Z,17.20
2019-02-18T00:07:00.586Z,17.20
2019-02-18T00:10:05.516Z,17.80
2019-02-18T00:13:10.247Z,17.30
2019-02-18T00:16:15.094Z,17.10
2019-02-18T00:19:20.138Z,17.20
2019-02-18T00:22:24.936Z,17.10
2019-02-18T00:25:29.754Z,17.10
2019-02-18T00:28:36.851Z,17.20
2019-02-18T00:31:41.154Z,17.20
2019-02-18T00:34:45.781Z,17.20
2019-02-18T00:37:50.599Z,17.20
2019-02-18T00:40:55.142Z,17.30
2019-02-18T00:44:00.007Z,17.10
2019-02-18T00:47:04.597Z,17.20
2019-02-18T00:50:09.447Z,17.10
2019-02-18T00:53:14.351Z,17.10
2019-02-18T00:56:19.340Z,17.00
2019-02-18T00:59:24.221Z,16.60
2019-02-18T01:02:28.793Z,17.00
2019-02-18T01:05:33.686Z,17.10
2019-02-18T01:08:38.550Z,17.00
2019-02-18T01:11:43.351Z,17.10
2019-02-18T01:14:48.172Z,17.00
2019-02-18T01:17:52.796Z,17.10
2019-02-18T01:20:57.629Z,17.60
2019-02-18T01:24:02.465Z,17.50
2019-02-18T01:27:07.094Z,17.10
2019-02-18T01:30:13.746Z,17.10
2019-02-18T01:33:18.597Z,17.10
2019-02-18T01:36:23.566Z,17.00
2019-02-18T01:39:28.449Z,17.10
2019-02-18T01:42:33.313Z,17.00
2019-02-18T01:45:39.037Z,17.00
2019-02-18T01:48:44.009Z,17.50
2019-02-18T01:51:48.712Z,17.00
2019-02-18T01:54:53.466Z,16.90
2019-02-18T01:57:58.233Z,17.00
2019-02-18T02:01:03.231Z,16.90
2019-02-18T02:04:08.013Z,17.00
2019-02-18T02:07:12.745Z,17.00
2019-02-18T02:10:17.572Z,17.00
2019-02-18T02:13:29.781Z,17.20
2019-02-18T02:16:34.488Z,17.30
2019-02-18T02:19:39.437Z,17.40
2019-02-18T02:22:44.057Z,17.50
2019-02-18T02:25:48.898Z,18.10
2019-02-18T02:28:53.768Z,17.40
2019-02-18T02:31:58.559Z,17.40
2019-02-18T02:35:03.416Z,17.30
2019-02-18T02:38:08.351Z,17.40
2019-02-18T02:41:13.178Z,17.30
2019-02-18T02:44:17.969Z,17.20
2019-02-18T02:47:22.951Z,17.20
2019-02-18T02:50:27.743Z,17.20
2019-02-18T02:53:32.707Z,17.10
2019-02-18T02:56:37.508Z,17.20
2019-02-18T02:59:42.339Z,17.10
2019-02-18T03:02:47.162Z,17.10
2019-02-18T03:05:52.005Z,17.20
2019-02-18T03:08:56.911Z,17.10
2019-02-18T03:12:01.750Z,17.20
2019-02-18T03:15:06.598Z,17.10
2019-02-18T03:18:11.516Z,17.10
2019-02-18T03:21:16.364Z,17.10
2019-02-18T03:24:21.183Z,17.10
2019-02-18T03:27:25.810Z,17.10
2019-02-18T03:30:48.854Z,17.10
2019-02-18T03:34:00.693Z,17.10
2019-02-18T03:37:05.495Z,17.00
2019-02-18T03:40:10.406Z,17.00
2019-02-18T03:43:15.247Z,17.00
2019-02-18T03:46:20.111Z,17.00
2019-02-18T03:49:24.683Z,17.10
2019-02-18T03:52:29.426Z,17.60
2019-02-18T03:55:34.261Z,17.20
2019-02-18T03:58:38.976Z,17.20
2019-02-18T04:01:43.683Z,17.20
2019-02-18T04:04:48.438Z,17.20
2019-02-18T04:07:53.282Z,17.20
2019-02-18T04:10:58.102Z,17.30
2019-02-18T04:14:03.838Z,17.50
2019-02-18T04:17:08.687Z,17.70
2019-02-18T04:20:13.405Z,17.80
2019-02-18T04:23:19.138Z,18.10
2019-02-18T04:26:24.004Z,18.30
2019-02-18T04:29:30.632Z,14.00
2019-02-18T04:34:14.964Z,14.40
2019-02-18T04:37:19.693Z,16.60
2019-02-18T04:40:24.325Z,15.40
2019-02-18T04:43:29.033Z,18.20
2019-02-18T04:46:33.864Z,18.50
2019-02-18T04:49:38.500Z,17.90
2019-02-18T04:52:43.232Z,17.70
2019-02-18T04:55:48.064Z,17.60
2019-02-18T04:58:52.691Z,17.60
2019-02-18T05:01:57.522Z,17.60
2019-02-18T05:05:02.053Z,17.50
2019-02-18T05:08:06.882Z,17.70
2019-02-18T05:11:11.821Z,17.70
2019-02-18T05:14:16.743Z,17.50
2019-02-18T05:17:21.461Z,17.50
2019-02-18T05:20:25.880Z,18.20
2019-02-18T05:23:30.634Z,17.80
2019-02-18T05:26:35.595Z,18.00
2019-02-18T05:29:40.491Z,18.10
2019-02-18T05:32:45.252Z,17.90
2019-02-18T05:35:49.742Z,17.80
2019-02-18T05:38:54.560Z,17.70
2019-02-18T05:41:59.407Z,17.70
2019-02-18T05:45:04.238Z,17.10
2019-02-18T05:48:08.845Z,17.10
2019-02-18T05:51:13.601Z,17.40
2019-02-18T05:54:18.302Z,17.30
2019-02-18T05:57:23.160Z,17.30
2019-02-18T06:00:28.084Z,17.20
2019-02-18T06:03:33.012Z,17.10
2019-02-18T06:06:37.529Z,17.10
2019-02-18T06:09:42.366Z,17.00
2019-02-18T06:12:47.093Z,17.00
2019-02-18T06:15:51.918Z,17.00
2019-02-18T06:18:56.960Z,17.00
2019-02-18T06:22:03.845Z,17.00
2019-02-18T06:25:09.984Z,16.80
2019-02-18T06:28:14.612Z,16.70
2019-02-18T06:31:19.423Z,16.70
2019-02-18T06:34:24.085Z,16.70
2019-02-18T06:37:30.724Z,16.50
2019-02-18T06:40:35.275Z,16.40
2019-02-18T06:43:40.196Z,16.20
2019-02-18T06:46:52.986Z,16.20
2019-02-18T06:49:57.651Z,16.10
2019-02-18T06:53:02.569Z,16.10
2019-02-18T06:56:07.411Z,16.60
2019-02-18T06:59:24.729Z,15.70
2019-02-18T07:02:44.696Z,15.80
2019-02-18T07:05:56.791Z,15.60
2019-02-18T07:09:09.333Z,15.50
2019-02-18T07:12:18.426Z,16.00
2019-02-18T07:15:24.251Z,15.30
2019-02-18T07:18:30.017Z,15.10
2019-02-18T07:21:34.754Z,15.10
2019-02-18T07:24:39.702Z,15.00
2019-02-18T07:27:44.641Z,15.00
2019-02-18T07:30:49.453Z,15.00
2019-02-18T07:33:54.292Z,15.10
2019-02-18T07:36:59.136Z,14.90
2019-02-18T07:40:03.860Z,14.90
2019-02-18T07:43:08.737Z,14.90
2019-02-18T07:46:15.347Z,14.90
2019-02-18T07:49:20.214Z,14.70
2019-02-18T07:52:24.894Z,14.70
2019-02-18T07:55:31.370Z,14.70
2019-02-18T07:58:35.800Z,14.70
2019-02-18T08:01:40.764Z,14.70
2019-02-18T08:04:45.669Z,14.60
2019-02-18T08:07:50.490Z,14.40
2019-02-18T08:10:55.317Z,15.10
2019-02-18T08:14:00.161Z,14.60
2019-02-18T08:17:04.973Z,14.50
2019-02-18T08:20:09.869Z,14.60
2019-02-18T08:23:14.637Z,14.30
2019-02-18T08:26:19.483Z,14.30
2019-02-18T08:29:24.215Z,14.50
2019-02-18T08:32:29.170Z,14.50
2019-02-18T08:35:33.862Z,14.50
2019-02-18T08:38:38.996Z,14.50
2019-02-18T08:41:43.929Z,14.50
2019-02-18T08:44:48.771Z,14.40
2019-02-18T08:47:53.748Z,15.00
2019-02-18T08:51:00.271Z,14.50
2019-02-18T08:54:05.141Z,14.30
2019-02-18T08:57:10.025Z,14.40
2019-02-18T09:00:16.399Z,14.30
2019-02-18T09:03:21.226Z,14.30
2019-02-18T09:06:26.091Z,14.40
2019-02-18T09:09:30.991Z,14.50
2019-02-18T09:12:35.820Z,14.50
2019-02-18T09:15:40.631Z,14.50
2019-02-18T09:18:45.386Z,14.50
2019-02-18T09:21:52.598Z,14.40
2019-02-18T09:25:15.729Z,14.90
2019-02-18T09:28:20.669Z,14.40
2019-02-18T09:31:30.820Z,14.60
2019-02-18T09:34:35.649Z,14.60
2019-02-18T09:37:40.171Z,14.40
2019-02-18T09:40:50.490Z,14.40
2019-02-18T09:44:46.381Z,14.60
2019-02-18T09:47:51.141Z,14.70
2019-02-18T09:50:55.977Z,14.70
2019-02-18T09:54:00.909Z,14.70
2019-02-18T09:57:05.736Z,14.70
2019-02-18T10:00:10.546Z,14.80
2019-02-18T10:03:15.106Z,14.80
2019-02-18T10:06:19.801Z,14.70
2019-02-18T10:09:24.521Z,14.80
2019-02-18T10:12:29.293Z,14.70
2019-02-18T10:15:34.093Z,14.70
2019-02-18T10:18:38.756Z,14.80
2019-02-18T10:21:45.119Z,14.80
2019-02-18T10:24:50.999Z,14.80
2019-02-18T10:27:55.983Z,14.80
2019-02-18T10:31:00.788Z,14.90
2019-02-18T10:34:06.486Z,14.90
2019-02-18T10:37:10.994Z,14.90
2019-02-18T10:40:15.802Z,14.90
2019-02-18T10:43:20.639Z,15.00
2019-02-18T10:46:25.473Z,15.00
2019-02-18T10:49:30.192Z,15.50
2019-02-18T10:52:34.716Z,15.00
2019-02-18T10:55:39.447Z,15.00
2019-02-18T10:58:44.333Z,15.10
2019-02-18T11:01:49.118Z,15.00
2019-02-18T11:04:54.049Z,15.10
2019-02-18T11:07:58.669Z,15.20
2019-02-18T11:11:03.522Z,15.20
2019-02-18T11:14:08.325Z,15.20
2019-02-18T11:17:13.389Z,15.20
2019-02-18T11:20:18.296Z,15.20
2019-02-18T11:23:22.840Z,15.30
2019-02-18T11:26:27.577Z,15.30
2019-02-18T11:29:32.489Z,15.40
2019-02-18T11:32:37.330Z,15.40
2019-02-18T11:35:42.049Z,15.40
2019-02-18T11:38:46.698Z,15.40
2019-02-18T11:41:51.588Z,15.00
2019-02-18T11:44:56.328Z,15.40
2019-02-18T11:48:01.376Z,15.50
2019-02-18T11:51:06.228Z,15.40
2019-02-18T11:54:10.967Z,15.60
2019-02-18T11:57:15.766Z,15.60
2019-02-18T12:00:20.597Z,15.50
2019-02-18T12:03:25.304Z,15.60
2019-02-18T12:06:30.054Z,15.70
2019-02-18T12:09:36.115Z,15.60
2019-02-18T12:12:40.954Z,15.90
2019-02-18T12:15:45.766Z,15.60
2019-02-18T12:18:50.597Z,15.70
2019-02-18T12:21:55.317Z,15.80
2019-02-18T12:25:00.181Z,16.30
2019-02-18T12:28:05.199Z,15.70
2019-02-18T12:31:10.130Z,15.80
2019-02-18T12:34:14.943Z,15.80
2019-02-18T12:37:19.797Z,15.80
2019-02-18T12:40:24.414Z,15.70
2019-02-18T12:43:29.464Z,15.80
2019-02-18T12:46:34.273Z,15.80
2019-02-18T12:49:39.004Z,15.80
2019-02-18T12:52:43.756Z,15.80
2019-02-18T12:55:48.894Z,15.90
2019-02-18T12:58:54.907Z,15.80
2019-02-18T13:01:59.750Z,15.80
2019-02-18T13:05:05.103Z,15.90
2019-02-18T13:08:10.031Z,15.90
2019-02-18T13:11:14.861Z,16.00
2019-02-18T13:14:19.394Z,16.00
2019-02-18T13:17:24.203Z,16.00
2019-02-18T13:20:29.050Z,16.00
2019-02-18T13:23:33.864Z,15.90
2019-02-18T13:26:39.551Z,16.00
2019-02-18T13:29:44.290Z,16.00
2019-02-18T13:32:49.069Z,16.10
2019-02-18T13:35:53.839Z,16.50
2019-02-18T13:38:59.144Z,16.00
2019-02-18T13:42:07.342Z,16.00
2019-02-18T13:45:10.436Z,16.00
2019-02-18T13:48:15.163Z,16.10
2019-02-18T13:51:24.345Z,16.00
2019-02-18T13:54:26.472Z,16.10
2019-02-18T13:57:31.315Z,16.10
2019-02-18T14:00:37.553Z,15.70
2019-02-18T14:03:42.302Z,16.10
2019-02-18T14:06:47.242Z,16.00
2019-02-18T14:09:51.996Z,16.30
2019-02-18T14:12:56.889Z,16.20
2019-02-18T14:16:02.408Z,16.10
2019-02-18T14:19:07.261Z,16.70
2019-02-18T14:22:12.806Z,16.20
2019-02-18T14:25:17.656Z,16.20
2019-02-18T14:28:24.185Z,16.20
2019-02-18T14:31:29.054Z,16.20
2019-02-18T14:34:33.874Z,16.20
2019-02-18T14:37:41.418Z,16.20
2019-02-18T14:40:47.998Z,16.20
2019-02-18T14:43:52.894Z,16.20
2019-02-18T14:46:57.581Z,16.20
2019-02-18T14:50:02.242Z,16.30
2019-02-18T14:53:07.147Z,16.30
2019-02-18T14:56:16.922Z,16.40
2019-02-18T14:59:21.528Z,16.20
2019-02-18T15:02:26.255Z,16.30
2019-02-18T15:05:32.544Z,16.40
2019-02-18T15:08:37.440Z,16.60
2019-02-18T15:11:42.479Z,16.30
2019-02-18T15:14:47.430Z,16.30
2019-02-18T15:17:52.051Z,16.40
2019-02-18T15:20:57.390Z,16.40
2019-02-18T15:24:02.220Z,16.40
2019-02-18T15:27:07.053Z,16.40
2019-02-18T15:30:12.495Z,15.90
2019-02-18T15:33:18.739Z,16.40
2019-02-18T15:36:23.486Z,16.40
2019-02-18T15:39:28.351Z,16.90
2019-02-18T15:42:41.535Z,16.50
2019-02-18T15:45:39.665Z,16.40
2019-02-18T15:48:44.477Z,16.50
2019-02-18T15:51:49.309Z,16.40
2019-02-18T15:54:54.212Z,16.40
2019-02-18T15:57:58.954Z,16.40
2019-02-18T16:01:04.318Z,13.80
2019-02-18T16:04:09.104Z,13.70
2019-02-18T16:07:13.857Z,13.60
2019-02-18T16:10:18.986Z,13.10
2019-02-18T16:13:23.737Z,13.50
2019-02-18T16:16:28.637Z,13.20
2019-02-18T16:19:33.584Z,13.20
2019-02-18T16:22:38.104Z,13.30
2019-02-18T16:25:42.946Z,13.10
2019-02-18T16:28:47.877Z,13.10
2019-02-18T16:31:52.593Z,13.10
2019-02-18T16:34:57.450Z,13.10
2019-02-18T16:38:02.467Z,13.10
2019-02-18T16:41:07.701Z,12.70
2019-02-18T16:44:13.033Z,12.80
2019-02-18T16:47:17.878Z,12.90
2019-02-18T16:50:22.594Z,14.10
2019-02-18T16:53:27.331Z,14.20
2019-02-18T16:56:32.243Z,14.20
2019-02-18T16:59:37.492Z,14.20
2019-02-18T17:02:42.319Z,14.00
2019-02-18T17:05:47.269Z,13.60
2019-02-18T17:08:52.292Z,14.10
2019-02-18T17:11:57.099Z,14.10
2019-02-18T17:15:01.655Z,14.10
2019-02-18T17:18:06.382Z,14.10
2019-02-18T17:21:11.521Z,14.20
2019-02-18T17:24:16.174Z,15.10
2019-02-18T17:27:21.086Z,17.10
2019-02-18T17:30:26.036Z,17.40
2019-02-18T17:33:31.345Z,17.70
2019-02-18T17:36:37.880Z,18.20
2019-02-18T17:39:42.654Z,18.30
2019-02-18T17:42:47.288Z,18.30
2019-02-18T17:45:52.313Z,18.80
2019-02-18T17:48:57.120Z,18.90
2019-02-18T17:52:02.075Z,19.20
2019-02-18T17:55:07.135Z,19.20
2019-02-18T17:58:11.647Z,19.60
2019-02-18T18:01:16.373Z,19.60
2019-02-18T18:04:21.320Z,19.70
2019-02-18T18:07:26.479Z,19.60
2019-02-18T18:10:31.508Z,19.60
2019-02-18T18:13:36.287Z,19.60
2019-02-18T18:16:41.556Z,19.50
2019-02-18T18:19:46.408Z,19.70
2019-02-18T18:22:51.115Z,19.80
2019-02-18T18:25:55.941Z,19.80
2019-02-18T18:29:02.417Z,19.80
2019-02-18T18:32:07.219Z,19.90
2019-02-18T18:35:12.269Z,19.90
2019-02-18T18:38:17.111Z,19.90
2019-02-18T18:41:21.966Z,19.90
2019-02-18T18:44:26.883Z,19.90
2019-02-18T18:47:32.316Z,19.70
2019-02-18T18:50:37.184Z,19.80
2019-02-18T18:53:43.205Z,19.70
2019-02-18T18:56:48.441Z,19.70
2019-02-18T18:59:53.261Z,19.70
2019-02-18T19:02:57.996Z,19.60
2019-02-18T19:06:02.716Z,19.70
2019-02-18T19:09:07.551Z,19.70
2019-02-18T19:12:12.377Z,19.60
2019-02-18T19:15:17.337Z,19.60
2019-02-18T19:18:22.241Z,19.50
2019-02-18T19:21:27.005Z,19.50
2019-02-18T19:24:31.728Z,19.50
2019-02-18T19:27:36.460Z,19.50
2019-02-18T19:30:41.290Z,19.40
2019-02-18T19:33:45.996Z,19.40
2019-02-18T19:36:51.113Z,19.40
2019-02-18T19:39:55.992Z,20.00
2019-02-18T19:43:00.878Z,19.40
2019-02-18T19:46:05.628Z,19.50
2019-02-18T19:49:10.464Z,19.50
2019-02-18T19:52:15.262Z,19.40
2019-02-18T19:55:20.124Z,20.00
2019-02-18T19:58:24.826Z,19.70
2019-02-18T20:01:29.693Z,19.40
2019-02-18T20:04:34.523Z,19.40
2019-02-18T20:07:39.529Z,19.40
2019-02-18T20:10:44.385Z,19.40
2019-02-18T20:13:49.329Z,19.50
2019-02-18T20:16:54.632Z,19.40
2019-02-18T20:19:59.575Z,19.30
2019-02-18T20:23:04.184Z,19.30
2019-02-18T20:26:09.111Z,19.30
2019-02-18T20:29:14.947Z,19.40
2019-02-18T20:32:19.885Z,19.20
2019-02-18T20:35:24.641Z,19.10
2019-02-18T20:38:29.274Z,19.00
2019-02-18T20:41:34.083Z,19.00
2019-02-18T20:44:38.930Z,18.90
2019-02-18T20:47:43.831Z,18.90
2019-02-18T20:50:48.588Z,18.80
2019-02-18T20:53:53.447Z,18.70
2019-02-18T20:56:58.462Z,18.70
2019-02-18T21:00:03.724Z,18.60
2019-02-18T21:03:08.489Z,18.60
2019-02-18T21:06:13.462Z,18.50
2019-02-18T21:09:18.141Z,18.50
2019-02-18T21:12:22.814Z,18.50
2019-02-18T21:15:27.619Z,18.40
2019-02-18T21:18:32.473Z,18.50
2019-02-18T21:21:37.332Z,18.40
2019-02-18T21:24:41.928Z,18.40
2019-02-18T21:27:46.624Z,18.30
2019-02-18T21:30:51.374Z,18.40
2019-02-18T21:33:56.316Z,18.30
2019-02-18T21:37:01.234Z,18.30
2019-02-18T21:40:06.079Z,18.30
2019-02-18T21:43:10.949Z,18.30
2019-02-18T21:46:15.712Z,18.30
2019-02-18T21:49:20.503Z,18.20
2019-02-18T21:52:25.284Z,18.10
2019-02-18T21:55:32.029Z,18.10
2019-02-18T21:58:36.889Z,18.10
2019-02-18T22:01:41.732Z,18.10
2019-02-18T22:04:46.654Z,18.10
2019-02-18T22:07:51.692Z,18.10
2019-02-18T22:10:56.526Z,18.10
2019-02-18T22:14:01.156Z,18.00
2019-02-18T22:17:05.876Z,18.10
2019-02-18T22:20:10.816Z,18.00
2019-02-18T22:23:15.772Z,18.10
2019-02-18T22:26:20.569Z,18.00
2019-02-18T22:29:25.425Z,17.90
2019-02-18T22:32:30.339Z,17.90
2019-02-18T22:35:35.227Z,17.90
2019-02-18T22:38:40.097Z,18.10
2019-02-18T22:41:44.957Z,18.10
2019-02-18T22:44:49.558Z,18.10
2019-02-18T22:47:54.480Z,18.10
2019-02-18T22:50:59.200Z,18.20
2019-02-18T22:54:04.197Z,17.80
2019-02-18T22:57:08.874Z,18.00
2019-02-18T23:00:43.452Z,18.00
2019-02-18T23:03:48.101Z,18.00
2019-02-18T23:06:52.542Z,18.00
2019-02-18T23:09:57.465Z,18.00
2019-02-18T23:13:02.295Z,18.00
2019-02-18T23:16:06.919Z,18.00
2019-02-18T23:19:11.317Z,17.90
2019-02-18T23:22:17.476Z,17.90
2019-02-18T23:25:22.336Z,17.90
2019-02-18T23:28:28.173Z,17.80
2019-02-18T23:31:32.926Z,17.90
2019-02-18T23:34:38.191Z,17.90
2019-02-18T23:37:42.991Z,17.90
2019-02-18T23:40:47.928Z,17.80
2019-02-18T23:43:52.838Z,17.80
2019-02-18T23:46:57.498Z,17.90
2019-02-18T23:50:02.293Z,17.80
2019-02-18T23:53:07.130Z,17.90
2019-02-18T23:56:13.600Z,17.80
2019-02-18T23:59:18.532Z,17.80
